Latest Coastal Weather Observations for Moorabbin Airport

IDV60701

Issued at 2:11 am EST Friday 31 July 2015 (issued every 10 minutes, with the page automatically refreshed every 10 minutes)

About coastal observations | Map of coastal stations | Coastal observations for VIC | Marine services | Other Formats
Station Details ID: 086077 Name: MOORABBIN AIRPORT Lat: -37.98 Lon: 145.10 Height: 12.1 m
Data from the previous 72 hours. | See also: Recent months at Moorabbin Airport
Date/Time
EST
Temp

°C
Wind Pressure Rain
since 9am
mm
Weather Cloud Vis
km
Sea
Height
m
Swell
Dir
 
Speed
knots
Gust
knots
hPa Trend Height
m
Period
s
Dir
31/02:00am 7.8 WNW 6 10 1018.8 - 3.4 - - 10 - - - -
31/01:30am 8.0 WNW 6 9 1018.7 - 3.4 - - 10 - - - -
31/01:00am 8.0 WNW 6 11 1018.4 - 3.4 - - 10 - - - -
31/12:30am 8.5 WNW 7 9 1018.3 - 3.4 - Partly cloudy 10 - - - -
31/12:00am 8.8 WNW 8 12 1018.2 - 3.4 - - 10 - - - -
 
Date/Time
EST
Temp

°C
Wind Pressure Rain
since 9am
mm
Weather Cloud Vis
km
Sea
Height
m
Swell
Dir
 
Speed
knots
Gust
knots
hPa Trend Height
m
Period
s
Dir
30/11:30pm 8.9 WNW 8 12 1018.2 - 3.4 - - 10 - - - -
30/11:00pm 9.0 WNW 6 9 1017.9 - 3.4 - Partly cloudy 10 - - - -
30/10:30pm 9.2 NW 7 10 1017.9 - 3.4 - Partly cloudy 10 - - - -
30/10:00pm 9.2 WNW 5 7 1017.9 - 3.4 - Partly cloudy 10 - - - -
30/09:49pm 9.1 NW 7 10 1017.7 - 3.4 - Partly cloudy 10 - - - -
30/09:30pm 9.1 WNW 7 11 1017.8 - 2.6 - Partly cloudy 3 - - - -
30/09:17pm 9.3 NW 12 19 1017.3 - 1.0 - Partly cloudy 5 - - - -
30/09:00pm 9.7 NW 14 20 1016.8 - 0.4 Rain Cloudy 8 - - - -
30/08:30pm 10.2 NNW 18 28 1015.6 - 0.2 - Cloudy 10 - - - -
30/08:00pm 10.9 NNW 23 35 1014.5 - 0.2 - Cloudy 10 - - - -
30/07:30pm 10.9 N 22 32 1014.2 - 0.2 - Cloudy 10 - - - -
30/07:00pm 10.9 NNW 22 32 1013.7 - 0.2 - Cloudy 10 - - - -
30/06:31pm 11.0 NNW 19 32 1013.0 - 0.2 - Cloudy 10 - - - -
30/06:30pm 10.8 NNW 18 26 1013.1 - 0.2 - Cloudy 10 - - - -
30/06:00pm 10.7 NNW 19 29 1013.3 - 0.0 - Cloudy 10 - - - -
30/05:30pm 11.9 NNW 18 28 1012.7 - 0.0 - Partly cloudy 10 - - - -
30/05:00pm 11.7 NNW 25 37 1011.2 - 0.0 - Partly cloudy 10 - - - -
30/04:30pm 11.9 NNW 23 35 1011.7 - 0.0 - Partly cloudy 10 - - - -
30/04:12pm 11.9 NNW 16 26 1012.3 - 0.0 - Partly cloudy 10 - - - -
30/04:00pm 11.7 N 17 26 1012.6 - 0.0 - Cloudy 10 - - - -
30/03:37pm 11.6 N 17 27 1012.7 - 0.0 - Partly cloudy 10 - - - -
30/03:30pm 11.4 N 15 21 1013.0 - 0.0 - Cloudy 10 - - - -
30/03:00pm 11.3 N 20 30 1013.8 - 0.0 - Cloudy 10 - - - -
30/02:30pm 11.4 N 22 37 1013.9 - 0.0 - Cloudy 10 - - - -
30/02:00pm 11.4 N 25 35 1013.9 - 0.0 - Cloudy 10 - - - -
30/01:30pm 10.6 N 26 37 1014.4 - 0.0 - Cloudy 10 - - - -
30/01:00pm 11.2 N 26 40 1015.3 - 0.0 - Partly cloudy 10 - - - -
30/12:30pm 11.6 N 26 37 1016.4 - 0.0 - Partly cloudy 10 - - - -
30/12:00pm 12.0 N 24 36 1017.1 - 0.0 - Mostly cloudy 10 - - - -
30/11:32am 11.4 N 23 33 1018.0 - 0.0 - Partly cloudy 10 - - - -
30/11:30am 11.2 N 23 31 1018.1 - 0.0 - Partly cloudy 10 - - - -
30/11:00am 11.3 N 26 36 1018.5 - 0.0 - Cloudy 10 - - - -
30/10:41am 11.3 N 25 38 1018.5 - 0.0 - Cloudy 10 - - - -
30/10:30am 11.7 N 23 32 1019.1 - 0.0 - Partly cloudy 10 - - - -
30/10:19am 11.4 N 23 33 1019.5 - 0.0 - Cloudy 10 - - - -
30/10:00am 10.9 N 23 32 1019.5 - 0.0 - Cloudy 10 - - - -
30/09:31am 10.9 N 19 29 1019.7 - 0.0 - Partly cloudy 10 - - - -
30/09:30am 10.8 N 19 25 1019.7 - 0.0 - Partly cloudy 10 - - - -
30/09:00am 10.1 N 18 27 1020.2 - 0.0 - Mostly cloudy 10 - - - -
30/08:53am 10.1 N 17 27 1020.1 - 0.0 - Partly cloudy 10 - - - -
30/08:30am 9.9 N 19 27 1020.2 - 0.0 - Partly cloudy 10 - - - -
30/08:00am 9.6 N 18 25 1020.3 - 0.0 - Partly cloudy 10 - - - -
30/07:30am 8.6 N 15 21 1020.5 - 0.0 - - 10 - - - -
30/07:00am 8.4 N 16 20 1020.8 - 0.0 - - 10 - - - -
30/06:30am 8.8 N 16 25 1021.2 - 0.0 - - 10 - - - -
30/06:00am 8.7 N 16 24 1021.3 - 0.0 - - 10 - - - -
30/05:30am 9.0 N 15 21 1021.4 - 0.0 - - 10 - - - -
30/05:00am 9.0 N 17 25 1021.6 - 0.0 - - 10 - - - -
30/04:30am 8.8 N 15 20 1022.1 - 0.0 - - 10 - - - -
30/04:00am 8.6 N 14 19 1022.7 - 0.0 - - 10 - - - -
30/03:30am 8.3 N 13 17 1022.9 - 0.0 - - 10 - - - -
30/03:00am 7.8 N 11 14 1023.4 - 0.0 - - 10 - - - -
30/02:30am 7.8 N 11 15 1023.9 - 0.0 - - 10 - - - -
30/02:00am 7.9 N 10 14 1024.6 - 0.0 - - 10 - - - -
30/01:30am 8.7 N 11 16 1024.9 - 0.0 - - 10 - - - -
30/01:00am 8.0 N 9 12 1025.2 - 0.0 - - 10 - - - -
30/12:30am 8.3 N 9 10 1025.8 - 0.0 - - 10 - - - -
30/12:00am 8.5 N 8 11 1026.5 - 0.0 - Cloudy 10 - - - -
 
Date/Time
EST
Temp

°C
Wind Pressure Rain
since 9am
mm
Weather Cloud Vis
km
Sea
Height
m
Swell
Dir
 
Speed
knots
Gust
knots
hPa Trend Height
m
Period
s
Dir
29/11:30pm 8.2 N 8 9 1026.7 - 0.0 - - 10 - - - -
29/11:00pm 8.7 N 9 11 1027.1 - 0.0 - - 10 - - - -
29/10:30pm 9.0 N 10 13 1027.1 - 0.0 - - 10 - - - -
29/10:00pm 9.5 N 8 12 1027.5 - 0.0 - Partly cloudy 10 - - - -
29/09:30pm 10.0 N 9 12 1027.7 - 0.0 - Cloudy 10 - - - -
29/09:00pm 10.0 N 9 14 1027.9 - 0.0 - Cloudy 10 - - - -
29/08:30pm 10.3 N 10 12 1028.0 - 0.0 - Cloudy 10 - - - -
29/08:00pm 10.3 N 11 14 1027.9 - 0.0 - Cloudy 10 - - - -
29/07:30pm 10.5 N 11 15 1028.3 - 0.0 - Cloudy 10 - - - -
29/07:00pm 10.5 N 13 18 1028.0 - 0.0 - Cloudy 10 - - - -
29/06:30pm 10.5 N 13 18 1028.0 - 0.0 - Partly cloudy 10 - - - -
29/06:00pm 10.8 N 12 17 1027.8 - 0.0 - Cloudy 10 - - - -
29/05:30pm 10.9 N 12 17 1027.9 - 0.0 - Partly cloudy 10 - - - -
29/05:00pm 11.1 N 13 16 1028.0 - 0.0 - - 10 - - - -
29/04:30pm 11.5 N 15 19 1027.9 - 0.0 - - 10 - - - -
29/04:00pm 11.9 N 14 19 1028.2 - 0.0 - - 10 - - - -
29/03:30pm 11.9 N 16 21 1028.3 - 0.0 - - 10 - - - -
29/03:00pm 12.3 N 17 21 1028.9 - 0.0 - Cloudy 10 - - - -
29/02:30pm 12.7 N 14 21 1029.0 - 0.0 - Partly cloudy 10 - - - -
29/02:00pm 13.1 N 16 25 1029.3 - 0.0 - - 10 - - - -
29/01:30pm 13.3 NNW 17 23 1029.8 - 0.0 - Partly cloudy 10 - - - -
29/01:19pm 13.3 N 15 25 1029.8 - 0.0 - Cloudy 10 - - - -
29/01:00pm 13.1 NNW 17 25 1029.9 - 0.0 - Partly cloudy 10 - - - -
29/12:53pm 13.0 NNW 15 25 1030.2 - 0.0 - Partly cloudy 10 - - - -
29/12:30pm 13.1 N 14 20 1030.9 - 0.0 - Partly cloudy 10 - - - -
29/12:00pm 13.3 NW 10 16 1031.6 - 0.0 - Cloudy 10 - - - -
29/11:30am 13.3 NNW 9 14 1032.0 - 0.0 - - 10 - - - -
29/11:00am 13.1 NNW 7 10 1032.6 - 0.0 - - 10 - - - -
29/10:30am 12.3 NNW 8 11 1032.8 - 0.0 - - 10 - - - -
29/10:00am 11.2 NNW 8 11 1033.0 - 0.0 - - 10 - - - -
29/09:30am 10.8 NNW 8 10 1033.2 - 0.0 - - 10 - - - -
29/09:00am 10.2 N 9 11 1033.1 - 0.0 - - 10 - - - -
29/08:30am 8.7 N 5 7 1033.4 - 0.0 - Partly cloudy 10 - - - -
29/08:00am 8.1 N 5 7 1033.2 - 0.0 - Partly cloudy 10 - - - -
29/07:30am 8.5 N 4 6 1032.8 - 0.0 - Partly cloudy 10 - - - -
29/07:00am 9.3 N 5 7 1032.7 - 0.0 - Cloudy 10 - - - -
29/06:30am 9.7 NNW 6 8 1032.8 - 0.0 - Cloudy 10 - - - -
29/06:00am 9.6 NNW 4 5 1032.6 - 0.0 - Cloudy 10 - - - -
29/05:30am 9.5 N 5 7 1032.4 - 0.0 - Cloudy 10 - - - -
29/05:00am 9.5 N 6 7 1032.3 - 0.0 - Cloudy 10 - - - -
29/04:30am 9.7 NNW 5 6 1032.6 - 0.0 - Cloudy 10 - - - -
29/04:00am 9.4 N 4 5 1032.6 - 0.0 - Cloudy 10 - - - -
29/03:30am 9.5 N 4 5 1032.7 - 0.0 - Partly cloudy 10 - - - -
29/03:00am 9.5 N 4 6 1032.9 - 0.0 - Cloudy 10 - - - -
29/02:30am 9.7 N 4 5 1033.3 - 0.0 - Partly cloudy 10 - - - -
29/02:00am 9.9 NNW 5 6 1033.2 - 0.0 - Cloudy 10 - - - -
29/01:30am 9.4 N 4 5 1032.9 - 0.0 - Cloudy 10 - - - -
29/01:00am 9.1 N 5 6 1033.0 - 0.0 - Partly cloudy 10 - - - -
29/12:30am 9.8 N 4 5 1033.6 - 0.0 - Cloudy 10 - - - -
29/12:00am 10.1 NW 4 5 1033.9 - 0.0 - Mostly cloudy 10 - - - -
 
Date/Time
EST
Temp

°C
Wind Pressure Rain
since 9am
mm
Weather Cloud Vis
km
Sea
Height
m
Swell
Dir
 
Speed
knots
Gust
knots
hPa Trend Height
m
Period
s
Dir
28/11:30pm 10.2 WNW 5 7 1033.9 - 0.0 - Partly cloudy 10 - - - -
28/11:00pm 10.4 NW 4 6 1034.0 - 0.0 - Partly cloudy 10 - - - -
28/10:30pm 10.7 W 6 10 1034.2 - 0.0 - Partly cloudy 10 - - - -
28/10:00pm 11.1 W 6 9 1034.3 - 0.0 - Cloudy 10 - - - -
28/09:30pm 10.5 WNW 2 4 1034.2 - 0.0 - Partly cloudy 10 - - - -
28/09:00pm 10.3 CALM 0 0 1034.2 - 0.0 - Cloudy 10 - - - -
28/08:30pm 10.2 CALM 0 0 1034.2 - 0.0 - Cloudy 10 - - - -
28/08:00pm 10.4 N 3 3 1034.0 - 0.0 - Cloudy 10 - - - -
28/07:30pm 10.5 N 4 5 1034.0 - 0.0 - Cloudy 10 - - - -
28/07:00pm 10.2 N 4 5 1034.0 - 0.0 - Cloudy 10 - - - -
28/06:30pm 10.5 N 3 4 1033.8 - 0.0 - Cloudy 10 - - - -
28/06:00pm 10.1 N 2 4 1033.6 - 0.0 - Mostly cloudy 10 - - - -
28/05:30pm 10.0 CALM 0 4 1033.6 - 0.0 - Partly cloudy 10 - - - -
28/05:00pm 10.7 S 4 6 1033.5 - 0.0 - - 10 - - - -
28/04:30pm 11.3 SSW 6 7 1033.4 - 0.0 - - 10 - - - -
28/04:00pm 12.2 SW 7 10 1033.5 - 0.0 - - 10 - - - -
28/03:30pm 12.3 SW 7 10 1033.5 - 0.0 - - 10 - - - -
28/03:00pm 12.1 WSW 8 11 1033.5 - 0.0 - - 10 - - - -
28/02:30pm 12.0 WSW 8 11 1033.4 - 0.0 - - 10 - - - -
28/02:00pm 12.6 WSW 8 11 1033.6 - 0.0 - - 10 - - - -
28/01:30pm 12.4 WSW 8 11 1033.8 - 0.0 - - 10 - - - -
28/01:00pm 12.3 WSW 7 10 1034.0 - 0.0 - - 10 - - - -
28/12:30pm 11.5 SW 9 11 1034.4 - 0.0 - - 10 - - - -
28/12:00pm 12.2 W 8 11 1034.6 - 0.0 - - 10 - - - -
28/11:30am 11.8 W 8 11 1035.1 - 0.0 - - 10 - - - -
28/11:00am 11.9 WNW 8 12 1035.5 - 0.0 - Partly cloudy 10 - - - -
28/10:30am 11.0 WNW 8 10 1035.7 - 0.0 - Partly cloudy 10 - - - -
28/10:00am 10.0 W 9 11 1035.4 - 0.0 - Cloudy 10 - - - -
28/09:30am 10.0 WNW 9 13 1035.2 - 0.0 - Cloudy 10 - - - -
28/09:00am 9.3 W 8 12 1035.1 - 0.0 - Cloudy 10 - - - -
28/08:30am 9.3 W 8 13 1034.7 - 0.0 - Partly cloudy 10 - - - -
28/08:00am 9.1 WNW 8 14 1034.4 - 0.0 - Partly cloudy 10 - - - -
28/07:30am 9.0 W 10 14 1034.0 - 0.0 - Partly cloudy 10 - - - -
28/07:00am 8.9 W 10 14 1033.6 - 0.0 - Partly cloudy 10 - - - -
28/06:30am 9.0 WNW 9 14 1033.3 - 0.0 - Partly cloudy 10 - - - -
28/06:00am 9.0 WNW 9 14 1032.9 - 0.0 - Cloudy 10 - - - -
28/05:30am 9.1 WNW 9 14 1032.6 - 0.0 - Cloudy 10 - - - -
28/05:00am 9.0 W 9 16 1032.4 - 0.0 - Partly cloudy 10 - - - -
28/04:30am 9.1 WNW 9 13 1032.1 - 0.0 - Partly cloudy 10 - - - -
28/04:14am 9.1 WNW 10 16 1032.0 - 0.0 - Partly cloudy 10 - - - -
28/04:00am 9.2 WNW 9 15 1032.0 - 0.0 - Partly cloudy 10 - - - -
28/03:59am 9.2 WNW 9 15 1032.0 - 0.0 - Partly cloudy 10 - - - -
28/03:30am 9.2 W 10 14 1031.9 - 0.0 - Partly cloudy 10 - - - -
28/03:00am 9.2 WNW 9 15 1031.8 - 0.0 - Cloudy 10 - - - -
28/02:30am 9.1 WNW 8 13 1031.7 - 0.0 - Partly cloudy 10 - - - -

Other Formats:

Comma delimited format used in spreadsheet applications
http://www.bom.gov.au/fwo/IDV60701/IDV60701.94870.axf

JavaScript Object Notation format (JSON) in row-major order
http://www.bom.gov.au/fwo/IDV60701/IDV60701.94870.json